Jamestown, Tennessee
Current Conditions -  °F | °C
As of 4:56 AM on Monday 22 Dec 2014 (Local Time) from KEKQ Reporting Station
Overcast Overcast  
Wind Chill: 46°   Ceiling: 3000
Heat Index: 46°   Visibility: 10mi
Dew Point: 38°   Wind: 0mph
Humidity: 74%   Direction: NA
Pressure: 30.03"   Gusts: NA
Location:  36.43°N, 84.93°W
Report Text: KEKQ 221056Z AUTO 00000KT 10SM BKN030 OVC035 08/03 A3003 RMK AO2 T00770033 SLP173
Loading
Personal Weather Stations






























Interactive Weather Map New forecast layout! Learn more

10-Day Weather Forecast

Advertisements
Track Severe Weather on mobile